Flugplatz Nardt

Für EDAT sind keine METAR/TAF Berichte vorhanden.
Es werden die Flugwettermeldungen vom Flugplatz Dresden in 46 km Entfernung angezeigt.

Bericht für EDDC

vom 09.03. um 06:50 UTC

Wind 6 kt aus 150°

Sichtweite 10 km oder mehr

gute Sicht, keine Wolken < 5000 ft, keine CB, keine Wettererscheinungen (CAVOK)

Temperatur -3.0°C

Taupunkt -6.0°C

Luftfeuchtigkeit 80%

Luftdruck 1020 hPa

keine wesentliche Wetteränderung innerhalb den nächsten 2 Stunden zu erwarten

EDDC 090650Z 15006KT CAVOK M03/M06 Q1020 NOSIG

Prognose für EDDC

vom 09.03. um 05:00 UTC

Zwischen 06:00 UTC und 06:00 UTC

Wind 6 kt aus 150°

Sichtweite 10 km oder mehr

keine signifikanten Wettererscheinungen

keine Wolken

TAF EDDC 090500Z 0906/1006 15006KT CAVOK
Impressum